Everson, Washington
Current Conditions -  °F | °C
As of 4:00 AM on Saturday 20 Dec 2014 (Local Time) from CYXX Reporting Station
Light Rain Light Rain  
Wind Chill: 39°   Ceiling: 4000
Heat Index: 43°   Visibility: 10mi
Dew Point: 41°   Wind: 7mph
Humidity: 93%   Direction: 30°NNE
Pressure: 29.71"   Gusts: NA
Location:  48.92°N, 122.34°W
Report Text: CYXX 201200Z 03006KT 10SM -RA OVC040 06/05 A2971 RMK SC8 SLP063
Loading
Personal Weather Stations






























Interactive Weather Map New forecast layout! Learn more

10-Day Weather Forecast

Advertisements
Track Severe Weather on mobile